createdAt,value
2019-04-23T00:00:07.593Z,0.00
2019-04-23T00:01:22.041Z,0.00
2019-04-23T00:02:10.520Z,0.00
2019-04-23T00:03:07.770Z,0.00
2019-04-23T00:04:05.879Z,0.00
2019-04-23T00:06:15.573Z,0.00
2019-04-23T00:07:22.707Z,0.00
2019-04-23T00:08:09.501Z,0.00
2019-04-23T00:09:12.433Z,0.00
2019-04-23T00:10:12.647Z,0.00
2019-04-23T00:12:12.671Z,0.00
2019-04-23T00:13:09.058Z,0.00
2019-04-23T00:14:12.222Z,0.00
2019-04-23T00:15:13.530Z,0.00
2019-04-23T00:16:26.564Z,0.00
2019-04-23T00:17:07.314Z,0.00
2019-04-23T00:18:12.309Z,0.00
2019-04-23T00:19:03.057Z,0.00
2019-04-23T00:20:10.070Z,0.00
2019-04-23T00:21:17.581Z,0.00
2019-04-23T00:22:05.536Z,0.00
2019-04-23T00:24:41.809Z,0.00
2019-04-23T00:26:13.725Z,0.00
2019-04-23T00:27:24.036Z,0.00
2019-04-23T00:28:16.515Z,0.00
2019-04-23T00:29:13.617Z,0.00
2019-04-23T00:30:11.087Z,0.00
2019-04-23T00:31:13.689Z,0.00
2019-04-23T00:32:10.347Z,0.00
2019-04-23T00:33:12.563Z,0.00
2019-04-23T00:34:11.001Z,0.00
2019-04-23T00:35:06.024Z,0.00
2019-04-23T00:36:10.749Z,0.00
2019-04-23T00:37:16.571Z,0.00
2019-04-23T00:38:13.937Z,0.00
2019-04-23T00:39:13.836Z,0.00
2019-04-23T00:40:02.613Z,0.00
2019-04-23T00:41:09.396Z,0.00
2019-04-23T00:42:12.054Z,0.00
2019-04-23T00:43:09.134Z,0.00
2019-04-23T00:44:15.124Z,0.00
2019-04-23T00:45:03.361Z,0.00
2019-04-23T00:46:11.051Z,0.00
2019-04-23T00:47:15.761Z,0.00
2019-04-23T00:48:15.423Z,0.00
2019-04-23T00:49:18.090Z,0.00
2019-04-23T00:50:12.127Z,0.00
2019-04-23T00:51:07.769Z,0.00
2019-04-23T00:52:16.405Z,0.00
2019-04-23T00:53:04.081Z,0.00
2019-04-23T00:54:13.927Z,0.00
2019-04-23T00:55:10.723Z,0.00
2019-04-23T00:56:26.609Z,0.00
2019-04-23T00:57:23.054Z,0.00
2019-04-23T00:58:14.168Z,0.00
2019-04-23T00:59:05.282Z,0.00
2019-04-23T01:00:19.040Z,0.00
2019-04-23T01:01:02.469Z,0.00
2019-04-23T01:02:08.856Z,0.00
2019-04-23T01:04:12.409Z,0.00
2019-04-23T01:05:11.330Z,0.00
2019-04-23T01:06:09.547Z,0.00
2019-04-23T01:07:04.324Z,0.00
2019-04-23T01:08:16.677Z,0.00
2019-04-23T01:09:25.967Z,0.00
2019-04-23T01:10:10.132Z,0.00
2019-04-23T01:12:06.386Z,0.00
2019-04-23T01:13:08.673Z,0.00
2019-04-23T01:14:08.333Z,0.00
2019-04-23T01:15:10.187Z,0.00
2019-04-23T01:16:08.951Z,0.00
2019-04-23T01:17:08.601Z,0.00
2019-04-23T01:18:14.266Z,0.00
2019-04-23T01:18:58.288Z,0.00
2019-04-23T01:20:08.225Z,0.00
2019-04-23T01:20:54.675Z,0.00
2019-04-23T01:21:47.375Z,0.00
2019-04-23T01:22:46.337Z,0.00
2019-04-23T01:23:52.632Z,0.00
2019-04-23T01:24:48.181Z,0.00
2019-04-23T01:25:54.279Z,0.00
2019-04-23T01:27:30.347Z,0.00
2019-04-23T01:28:07.601Z,0.00
2019-04-23T01:29:14.004Z,0.00
2019-04-23T01:31:18.610Z,0.00
2019-04-23T01:32:05.310Z,0.00
2019-04-23T01:33:12.302Z,0.00
2019-04-23T01:34:13.444Z,0.00
2019-04-23T01:37:09.306Z,0.00
2019-04-23T01:38:11.232Z,0.00
2019-04-23T01:39:11.833Z,0.00
2019-04-23T01:40:16.254Z,0.00
2019-04-23T01:41:13.280Z,0.00
2019-04-23T01:42:22.712Z,0.00
2019-04-23T01:43:12.572Z,0.00
2019-04-23T01:44:15.613Z,0.00
2019-04-23T01:45:26.932Z,0.00
2019-04-23T01:46:32.166Z,0.00
2019-04-23T01:47:15.606Z,0.00
2019-04-23T01:48:11.410Z,0.00
2019-04-23T01:49:18.549Z,0.00
2019-04-23T01:50:17.327Z,0.00
2019-04-23T01:51:08.219Z,0.00
2019-04-23T01:52:15.407Z,0.00
2019-04-23T01:53:16.643Z,0.00
2019-04-23T01:54:09.535Z,0.00
2019-04-23T01:55:17.194Z,0.00
2019-04-23T01:56:14.426Z,0.00
2019-04-23T01:57:16.641Z,0.00
2019-04-23T01:58:25.863Z,0.00
2019-04-23T01:59:14.119Z,0.00
2019-04-23T02:00:18.752Z,0.00
2019-04-23T02:01:11.326Z,0.00
2019-04-23T02:02:15.092Z,0.00
2019-04-23T02:04:18.688Z,0.00
2019-04-23T02:05:15.715Z,0.00
2019-04-23T02:06:18.906Z,0.00
2019-04-23T02:07:11.306Z,0.00
2019-04-23T02:08:07.810Z,0.00
2019-04-23T02:09:12.629Z,0.00
2019-04-23T02:10:25.915Z,0.00
2019-04-23T02:11:09.821Z,0.00
2019-04-23T02:12:11.538Z,0.00
2019-04-23T02:13:16.147Z,0.00
2019-04-23T02:15:23.012Z,0.00
2019-04-23T02:16:10.489Z,0.00
2019-04-23T02:17:28.790Z,0.00
2019-04-23T02:18:14.900Z,0.00
2019-04-23T02:19:17.712Z,0.00
2019-04-23T02:20:15.900Z,0.00
2019-04-23T02:21:10.590Z,0.00
2019-04-23T02:22:18.099Z,0.00
2019-04-23T02:24:12.764Z,0.00
2019-04-23T02:25:15.779Z,0.00
2019-04-23T02:26:09.539Z,0.00
2019-04-23T02:27:12.119Z,0.00
2019-04-23T02:28:15.952Z,0.00
2019-04-23T02:29:24.446Z,0.00
2019-04-23T02:30:36.310Z,0.00
2019-04-23T02:32:09.396Z,0.00
2019-04-23T02:33:31.835Z,0.00
2019-04-23T02:34:41.007Z,0.00
2019-04-23T02:35:32.845Z,0.00
2019-04-23T02:37:24.432Z,0.00
2019-04-23T02:38:27.254Z,0.00
2019-04-23T02:39:11.729Z,0.00
2019-04-23T02:42:28.636Z,0.00
2019-04-23T02:44:19.839Z,0.00
2019-04-23T02:45:16.502Z,0.00
2019-04-23T02:46:09.752Z,0.00
2019-04-23T02:47:23.125Z,0.00
2019-04-23T02:50:32.905Z,0.00
2019-04-23T02:51:22.081Z,0.00
2019-04-23T02:52:21.312Z,0.00
2019-04-23T02:53:25.991Z,0.00
2019-04-23T02:54:27.157Z,0.00
2019-04-23T02:55:22.021Z,0.00
2019-04-23T02:57:24.743Z,0.00
2019-04-23T03:03:28.122Z,0.00
2019-04-23T03:04:35.717Z,0.00
2019-04-23T03:06:14.965Z,0.00
2019-04-23T03:08:17.081Z,0.00
2019-04-23T03:09:20.611Z,0.00
2019-04-23T03:10:16.053Z,0.00
2019-04-23T03:11:26.722Z,0.00
2019-04-23T03:12:24.590Z,0.00
2019-04-23T03:13:28.869Z,0.00
2019-04-23T03:17:10.514Z,0.00
2019-04-23T03:18:37.491Z,0.00
2019-04-23T03:19:14.838Z,0.00
2019-04-23T03:20:21.450Z,0.00
2019-04-23T03:22:15.703Z,0.00
2019-04-23T03:23:25.276Z,0.00
2019-04-23T03:24:38.926Z,0.00
2019-04-23T03:25:23.426Z,0.00
2019-04-23T03:26:26.306Z,0.00
2019-04-23T03:27:25.260Z,0.00
2019-04-23T03:28:23.234Z,0.00
2019-04-23T03:29:25.735Z,0.00
2019-04-23T03:34:19.627Z,0.00
2019-04-23T03:35:09.564Z,0.00
2019-04-23T03:37:30.749Z,0.00
2019-04-23T03:38:32.108Z,0.00
2019-04-23T03:39:34.636Z,0.00
2019-04-23T03:42:33.113Z,4.00
2019-04-23T03:43:26.017Z,0.00
2019-04-23T03:44:20.795Z,0.00
2019-04-23T03:46:24.418Z,0.00
2019-04-23T03:47:26.786Z,4.00
2019-04-23T03:49:13.821Z,4.00
2019-04-23T03:51:17.188Z,8.00
2019-04-23T03:52:27.937Z,12.00
2019-04-23T03:53:24.904Z,8.00
2019-04-23T03:55:19.448Z,16.00
2019-04-23T03:56:24.024Z,16.00
2019-04-23T03:57:18.208Z,20.00
2019-04-23T03:58:19.177Z,20.00
2019-04-23T03:59:20.425Z,28.00
2019-04-23T04:00:28.899Z,28.00
2019-04-23T04:01:23.183Z,36.00
2019-04-23T04:02:30.674Z,36.00
2019-04-23T04:05:27.297Z,56.00
2019-04-23T04:07:36.306Z,64.00
2019-04-23T04:08:21.649Z,72.00
2019-04-23T04:09:26.049Z,76.00
2019-04-23T04:10:36.008Z,88.00
2019-04-23T04:11:18.273Z,96.00
2019-04-23T04:12:25.742Z,108.00
2019-04-23T04:13:22.660Z,116.00
2019-04-23T04:14:36.364Z,132.00
2019-04-23T04:15:31.104Z,144.00
2019-04-23T04:17:20.162Z,172.00
2019-04-23T04:19:25.128Z,196.00
2019-04-23T04:20:29.259Z,212.00
2019-04-23T04:23:26.248Z,260.00
2019-04-23T04:24:27.354Z,276.00
2019-04-23T04:25:37.470Z,288.00
2019-04-23T04:26:21.109Z,308.00
2019-04-23T04:27:15.136Z,320.00
2019-04-23T04:29:21.168Z,356.00
2019-04-23T04:30:22.262Z,372.00
2019-04-23T04:31:13.693Z,392.00
2019-04-23T04:32:12.475Z,412.00
2019-04-23T04:33:31.568Z,432.00
2019-04-23T04:34:55.583Z,448.00
2019-04-23T04:36:21.635Z,492.00
2019-04-23T04:37:35.540Z,504.00
2019-04-23T04:38:29.901Z,524.00
2019-04-23T04:39:19.475Z,540.00
2019-04-23T04:41:28.985Z,568.00
2019-04-23T04:44:38.172Z,608.00
2019-04-23T04:46:30.420Z,636.00
2019-04-23T04:47:28.584Z,644.00
2019-04-23T04:48:09.867Z,664.00
2019-04-23T04:51:19.396Z,712.00
2019-04-23T04:54:14.207Z,764.00
2019-04-23T04:55:21.032Z,784.00
2019-04-23T04:57:20.429Z,824.00
2019-04-23T04:58:35.168Z,840.00
2019-04-23T04:59:18.134Z,860.00
2019-04-23T05:00:20.413Z,876.00
2019-04-23T05:02:39.642Z,908.00
2019-04-23T05:04:24.222Z,944.00
2019-04-23T05:05:37.623Z,964.00
2019-04-23T05:06:37.964Z,980.00
2019-04-23T05:07:25.938Z,992.00
2019-04-23T05:11:23.726Z,1068.00
2019-04-23T05:13:34.298Z,1108.00
2019-04-23T05:14:13.580Z,1128.00
2019-04-23T05:15:14.925Z,1140.00
2019-04-23T05:16:15.980Z,1156.00
2019-04-23T05:17:18.276Z,1168.00
2019-04-23T05:19:25.038Z,1188.00
2019-04-23T05:20:16.996Z,1196.00
2019-04-23T05:21:15.440Z,1204.00
2019-04-23T05:22:33.672Z,1216.00
2019-04-23T05:24:08.848Z,1236.00
2019-04-23T05:25:04.182Z,1244.00
2019-04-23T05:26:13.563Z,1248.00
2019-04-23T05:27:29.039Z,1256.00
2019-04-23T05:28:12.558Z,1268.00
2019-04-23T05:30:15.080Z,1284.00
2019-04-23T05:31:17.565Z,1296.00
2019-04-23T05:32:30.508Z,1308.00
2019-04-23T05:33:18.841Z,1320.00
2019-04-23T05:34:06.063Z,1332.00
2019-04-23T05:35:15.061Z,1352.00
2019-04-23T05:37:14.687Z,1384.00
2019-04-23T05:38:31.453Z,1404.00
2019-04-23T05:39:15.466Z,1424.00
2019-04-23T05:40:25.368Z,1436.00
2019-04-23T05:41:16.278Z,1452.00
2019-04-23T05:42:10.954Z,1468.00
2019-04-23T05:43:12.386Z,1480.00
2019-04-23T05:44:15.721Z,1488.00
2019-04-23T05:45:09.755Z,1504.00
2019-04-23T05:46:19.892Z,1516.00
2019-04-23T05:47:19.100Z,1532.00
2019-04-23T05:48:13.424Z,1548.00
2019-04-23T05:49:12.698Z,1564.00
2019-04-23T05:50:18.722Z,1576.00
2019-04-23T05:51:14.367Z,1592.00
2019-04-23T05:52:07.984Z,1604.00
2019-04-23T05:53:13.196Z,1624.00
2019-04-23T05:54:14.093Z,1632.00
2019-04-23T05:55:09.133Z,1652.00
2019-04-23T05:56:06.493Z,1672.00
2019-04-23T05:57:06.971Z,1688.00
2019-04-23T05:58:16.576Z,1708.00
2019-04-23T05:59:12.933Z,1732.00
2019-04-23T06:00:08.914Z,1752.00
2019-04-23T06:01:24.643Z,1772.00
2019-04-23T06:02:11.346Z,1792.00
2019-04-23T06:03:11.685Z,1812.00
2019-04-23T06:05:08.933Z,1852.00
2019-04-23T06:06:14.286Z,1872.00
2019-04-23T06:07:24.948Z,1900.00
2019-04-23T06:08:11.970Z,1920.00
2019-04-23T06:11:08.613Z,1984.00
2019-04-23T06:12:10.086Z,2000.00
2019-04-23T06:13:16.789Z,2012.00
2019-04-23T06:14:17.400Z,2028.00
2019-04-23T06:15:12.882Z,2048.00
2019-04-23T06:16:13.753Z,2068.00
2019-04-23T06:17:19.848Z,1940.00
2019-04-23T06:19:14.152Z,1984.00
2019-04-23T06:20:09.354Z,2004.00
2019-04-23T06:21:10.191Z,2028.00
2019-04-23T06:22:31.518Z,2052.00
2019-04-23T06:23:13.390Z,2084.00
2019-04-23T06:24:17.006Z,2104.00
2019-04-23T06:25:27.803Z,2132.00
2019-04-23T06:26:25.425Z,2152.00
2019-04-23T06:27:16.596Z,2172.00
2019-04-23T06:29:15.725Z,2212.00
2019-04-23T06:30:08.812Z,2232.00
2019-04-23T06:31:09.766Z,2264.00
2019-04-23T06:32:06.130Z,2312.00
2019-04-23T06:33:16.407Z,2332.00
2019-04-23T06:35:09.063Z,2372.00
2019-04-23T06:36:13.579Z,2396.00
2019-04-23T06:37:09.322Z,2412.00
2019-04-23T06:39:06.691Z,2460.00
2019-04-23T06:40:08.708Z,2492.00
2019-04-23T06:41:15.652Z,2528.00
2019-04-23T06:42:08.125Z,2568.00
2019-04-23T06:43:16.614Z,2596.00
2019-04-23T06:44:13.742Z,2648.00
2019-04-23T06:45:06.249Z,2708.00
2019-04-23T06:46:17.188Z,2780.00
2019-04-23T06:47:06.884Z,2864.00
2019-04-23T06:48:20.311Z,2936.00
2019-04-23T06:49:09.187Z,3016.00
2019-04-23T06:50:07.559Z,3084.00
2019-04-23T06:51:15.860Z,3164.00
2019-04-23T06:53:05.191Z,3332.00
2019-04-23T06:54:14.556Z,3420.00
2019-04-23T06:55:09.410Z,3512.00
2019-04-23T06:56:13.554Z,3608.00
2019-04-23T06:57:14.652Z,3692.00
2019-04-23T06:58:12.293Z,3780.00
2019-04-23T06:59:12.898Z,3864.00
2019-04-23T07:00:10.206Z,3948.00
2019-04-23T07:01:06.696Z,4040.00
2019-04-23T07:02:11.893Z,4128.00
2019-04-23T07:03:16.127Z,4208.00
2019-04-23T07:04:10.700Z,4292.00
2019-04-23T07:05:08.593Z,4380.00
2019-04-23T07:07:31.611Z,4504.00
2019-04-23T07:08:17.941Z,4572.00
2019-04-23T07:09:12.417Z,4632.00
2019-04-23T07:10:07.301Z,4668.00
2019-04-23T07:11:18.802Z,4712.00
2019-04-23T07:12:09.101Z,4732.00
2019-04-23T07:13:18.806Z,4744.00
2019-04-23T07:14:26.204Z,4736.00
2019-04-23T07:15:30.880Z,4684.00
2019-04-23T07:16:09.912Z,4636.00
2019-04-23T07:17:21.398Z,4600.00
2019-04-23T07:18:10.050Z,4684.00
2019-04-23T07:19:12.732Z,4716.00
2019-04-23T07:20:09.787Z,4816.00
2019-04-23T07:21:12.969Z,4916.00
2019-04-23T07:22:14.889Z,4984.00
2019-04-23T07:23:17.091Z,5068.00
2019-04-23T07:24:08.607Z,5152.00
2019-04-23T07:25:08.390Z,5184.00
2019-04-23T07:26:23.013Z,5212.00
2019-04-23T07:27:11.935Z,5384.00
2019-04-23T07:28:13.484Z,5476.00
2019-04-23T07:29:13.971Z,5660.00
2019-04-23T07:30:22.310Z,5756.00
2019-04-23T07:31:17.168Z,5840.00
2019-04-23T07:32:05.278Z,5972.00
2019-04-23T07:33:11.862Z,6100.00
2019-04-23T07:34:10.633Z,6244.00
2019-04-23T07:36:11.411Z,6868.00
2019-04-23T07:37:07.373Z,7396.00
2019-04-23T07:38:16.420Z,8376.00
2019-04-23T07:40:27.506Z,14556.00
2019-04-23T07:41:18.583Z,14896.00
2019-04-23T07:42:27.021Z,15312.00
2019-04-23T07:43:11.597Z,15740.00
2019-04-23T07:44:08.432Z,16736.00
2019-04-23T07:45:12.447Z,18240.00
2019-04-23T07:46:20.214Z,19264.00
2019-04-23T07:47:19.440Z,19392.00
2019-04-23T07:49:10.388Z,16352.00
2019-04-23T07:50:22.913Z,15204.00
2019-04-23T07:51:05.781Z,14976.00
2019-04-23T07:53:13.303Z,15084.00
2019-04-23T07:55:22.018Z,16416.00
2019-04-23T07:56:07.615Z,15684.00
2019-04-23T07:57:15.318Z,14780.00
2019-04-23T07:58:17.325Z,15052.00
2019-04-23T07:59:12.345Z,15444.00
2019-04-23T08:00:22.981Z,15632.00
2019-04-23T08:01:05.015Z,16448.00
2019-04-23T08:02:16.080Z,16928.00
2019-04-23T08:03:17.332Z,17568.00
2019-04-23T08:04:11.515Z,17536.00
2019-04-23T08:05:17.927Z,17696.00
2019-04-23T08:06:10.326Z,18432.00
2019-04-23T08:07:22.575Z,17536.00
2019-04-23T08:08:06.733Z,17760.00
2019-04-23T08:09:10.371Z,17056.00
2019-04-23T08:10:18.604Z,16288.00
2019-04-23T08:12:12.420Z,14688.00
2019-04-23T08:14:08.494Z,15876.00
2019-04-23T08:15:09.091Z,16832.00
2019-04-23T08:16:19.678Z,17184.00
2019-04-23T08:17:12.418Z,18080.00
2019-04-23T08:18:13.628Z,19616.00
2019-04-23T08:20:08.050Z,18240.00
2019-04-23T08:21:09.820Z,17632.00
2019-04-23T08:22:22.209Z,16100.00
2019-04-23T08:23:09.992Z,15660.00
2019-04-23T08:24:12.981Z,14904.00
2019-04-23T08:25:31.917Z,13060.00
2019-04-23T08:26:23.939Z,11776.00
2019-04-23T08:27:12.922Z,10304.00
2019-04-23T08:28:13.441Z,9944.00
2019-04-23T08:29:12.881Z,9832.00
2019-04-23T08:30:05.646Z,10472.00
2019-04-23T08:31:09.372Z,11420.00
2019-04-23T08:32:18.938Z,12340.00
2019-04-23T08:34:17.024Z,12264.00
2019-04-23T08:36:12.160Z,11860.00
2019-04-23T08:37:08.894Z,11552.00
2019-04-23T08:39:14.018Z,11264.00
2019-04-23T08:40:09.768Z,9736.00
2019-04-23T08:41:22.899Z,9036.00
2019-04-23T08:42:28.802Z,8708.00
2019-04-23T08:43:25.124Z,8508.00
2019-04-23T08:44:16.863Z,8468.00
2019-04-23T08:45:21.762Z,8516.00
2019-04-23T08:46:07.244Z,8668.00
2019-04-23T08:48:14.196Z,9672.00
2019-04-23T08:49:11.872Z,10320.00
2019-04-23T08:50:04.815Z,10364.00
2019-04-23T08:51:25.483Z,9956.00
2019-04-23T08:52:14.857Z,9848.00
2019-04-23T08:53:23.422Z,10424.00
2019-04-23T08:54:21.905Z,11776.00
2019-04-23T08:55:11.178Z,13788.00
2019-04-23T08:56:12.360Z,15652.00
2019-04-23T08:57:08.736Z,16384.00
2019-04-23T08:58:06.149Z,17952.00
2019-04-23T08:59:22.572Z,19456.00
2019-04-23T09:00:07.804Z,22592.00
2019-04-23T09:02:30.821Z,21952.00
2019-04-23T09:03:11.226Z,23392.00
2019-04-23T09:04:14.110Z,22432.00
2019-04-23T09:05:11.118Z,22208.00
2019-04-23T09:09:12.744Z,16256.00
2019-04-23T09:10:15.485Z,15064.00
2019-04-23T09:11:27.570Z,14180.00
2019-04-23T09:12:12.305Z,13540.00
2019-04-23T09:13:35.087Z,13208.00
2019-04-23T09:14:00.950Z,13056.00
2019-04-23T09:15:07.161Z,12832.00
2019-04-23T09:16:22.628Z,12712.00
2019-04-23T09:17:13.212Z,12876.00
2019-04-23T09:18:09.260Z,13020.00
2019-04-23T09:21:10.553Z,14448.00
2019-04-23T09:22:19.155Z,14744.00
2019-04-23T09:23:10.062Z,15084.00
2019-04-23T09:24:05.794Z,15836.00
2019-04-23T09:25:14.095Z,17472.00
2019-04-23T09:26:02.384Z,20128.00
2019-04-23T09:27:16.406Z,21216.00
2019-04-23T09:28:07.369Z,25024.00
2019-04-23T09:29:04.570Z,28672.00
2019-04-23T09:30:16.769Z,31936.00
2019-04-23T09:31:14.476Z,33888.00
2019-04-23T09:33:07.494Z,36480.00
2019-04-23T09:34:04.969Z,38400.00
2019-04-23T09:35:15.935Z,39936.00
2019-04-23T09:36:06.521Z,38048.00
2019-04-23T09:37:13.483Z,39904.00
2019-04-23T09:38:07.017Z,40352.00
2019-04-23T09:39:24.058Z,41568.00
2019-04-23T09:40:18.987Z,42688.00
2019-04-23T09:41:20.008Z,44032.00
2019-04-23T09:42:08.786Z,42848.00
2019-04-23T09:43:16.890Z,41728.00
2019-04-23T09:45:05.457Z,34592.00
2019-04-23T09:46:15.523Z,33792.00
2019-04-23T09:50:11.140Z,31968.00
2019-04-23T09:51:10.153Z,31424.00
2019-04-23T09:54:09.804Z,30592.00
2019-04-23T09:55:20.064Z,29696.00
2019-04-23T09:56:05.092Z,29568.00
2019-04-23T09:57:07.242Z,28864.00
2019-04-23T09:58:07.799Z,28128.00
2019-04-23T09:59:17.498Z,28224.00
2019-04-23T10:00:10.716Z,29856.00
2019-04-23T10:00:59.108Z,30496.00
2019-04-23T10:02:04.244Z,31040.00
2019-04-23T10:02:53.336Z,31200.00
2019-04-23T10:03:53.348Z,31584.00
2019-04-23T10:04:57.454Z,32192.00
2019-04-23T10:05:51.001Z,32128.00
2019-04-23T10:06:56.329Z,32032.00
2019-04-23T10:07:53.348Z,30944.00
2019-04-23T10:08:47.433Z,29056.00
2019-04-23T10:09:40.647Z,27136.00
2019-04-23T10:10:40.471Z,24736.00
2019-04-23T10:11:40.875Z,19680.00
2019-04-23T10:12:39.997Z,13752.00
2019-04-23T10:13:40.594Z,12848.00
2019-04-23T10:14:51.215Z,12596.00
2019-04-23T10:15:42.979Z,12508.00
2019-04-23T10:16:41.277Z,12476.00
2019-04-23T10:17:40.279Z,12764.00
2019-04-23T10:18:39.418Z,13500.00
2019-04-23T10:19:40.605Z,16224.00
2019-04-23T10:20:40.415Z,24960.00
2019-04-23T10:21:39.513Z,31584.00
2019-04-23T10:22:39.551Z,35232.00
2019-04-23T10:23:39.196Z,31232.00
2019-04-23T10:24:39.316Z,28128.00
2019-04-23T10:25:40.279Z,30048.00
2019-04-23T10:26:39.945Z,27808.00
2019-04-23T10:27:39.304Z,24256.00
2019-04-23T10:28:40.276Z,22816.00
2019-04-23T10:29:39.120Z,20768.00
2019-04-23T10:30:40.650Z,19488.00
2019-04-23T10:31:40.069Z,16680.00
2019-04-23T10:32:40.067Z,15252.00
2019-04-23T10:33:39.909Z,13940.00
2019-04-23T10:35:00.748Z,13804.00
2019-04-23T10:35:48.990Z,13724.00
2019-04-23T10:36:40.627Z,13164.00
2019-04-23T10:37:46.871Z,12520.00
2019-04-23T10:38:41.581Z,12648.00
2019-04-23T10:39:44.699Z,12724.00
2019-04-23T10:40:45.851Z,13060.00
2019-04-23T10:41:42.601Z,13180.00
2019-04-23T10:42:43.776Z,13244.00
2019-04-23T10:43:42.508Z,13088.00
2019-04-23T10:44:40.715Z,12960.00
2019-04-23T10:45:57.623Z,12556.00
2019-04-23T10:47:06.717Z,12204.00
2019-04-23T10:48:17.312Z,12100.00
2019-04-23T10:49:28.567Z,12320.00
2019-04-23T10:50:05.700Z,12460.00
2019-04-23T10:51:04.570Z,12484.00
2019-04-23T10:53:23.439Z,11900.00
2019-04-23T10:54:24.706Z,11564.00
2019-04-23T10:55:06.759Z,11232.00
2019-04-23T10:56:23.394Z,10752.00
2019-04-23T10:57:04.044Z,10132.00
2019-04-23T10:58:11.816Z,9816.00
2019-04-23T10:59:10.815Z,9488.00
2019-04-23T10:59:58.629Z,9292.00
2019-04-23T11:01:21.356Z,8968.00
2019-04-23T11:02:20.041Z,8712.00
2019-04-23T11:03:18.578Z,8616.00
2019-04-23T11:04:23.046Z,8384.00
2019-04-23T11:05:29.162Z,8148.00
2019-04-23T11:07:19.813Z,8084.00
2019-04-23T11:08:02.323Z,8120.00
2019-04-23T11:09:18.697Z,8128.00
2019-04-23T11:10:11.221Z,8392.00
2019-04-23T11:12:12.583Z,9048.00
2019-04-23T11:13:10.668Z,9112.00
2019-04-23T11:14:16.216Z,8812.00
2019-04-23T11:15:18.302Z,8580.00
2019-04-23T11:17:03.765Z,8096.00
2019-04-23T11:17:59.497Z,7896.00
2019-04-23T11:19:21.469Z,7664.00
2019-04-23T11:20:15.540Z,7436.00
2019-04-23T11:21:13.949Z,7324.00
2019-04-23T11:22:32.959Z,7188.00
2019-04-23T11:23:00.519Z,6928.00
2019-04-23T11:24:20.640Z,6768.00
2019-04-23T11:25:20.457Z,6820.00
2019-04-23T11:27:17.435Z,7032.00
2019-04-23T11:28:13.537Z,6932.00
2019-04-23T11:29:12.795Z,6780.00
2019-04-23T11:30:19.160Z,6776.00
2019-04-23T11:31:15.661Z,6724.00
2019-04-23T11:32:35.184Z,6576.00
2019-04-23T11:33:14.702Z,6556.00
2019-04-23T11:36:35.766Z,6776.00
2019-04-23T11:37:19.443Z,6876.00
2019-04-23T11:39:25.399Z,7384.00
2019-04-23T11:40:08.753Z,7936.00
2019-04-23T11:41:09.051Z,8360.00
2019-04-23T11:42:11.551Z,8848.00
2019-04-23T11:44:13.298Z,10040.00
2019-04-23T11:45:15.788Z,10464.00
2019-04-23T11:46:26.581Z,10700.00
2019-04-23T11:47:28.445Z,10784.00
2019-04-23T11:48:33.006Z,11800.00
2019-04-23T11:49:26.512Z,12128.00
2019-04-23T11:50:24.383Z,12164.00
2019-04-23T11:51:41.131Z,12544.00
2019-04-23T11:52:18.930Z,12444.00
2019-04-23T11:53:15.563Z,12924.00
2019-04-23T11:54:10.217Z,12440.00
2019-04-23T11:55:22.803Z,11640.00
2019-04-23T11:56:13.637Z,10076.00
2019-04-23T11:59:21.657Z,8864.00
2019-04-23T12:01:23.630Z,9296.00
2019-04-23T12:02:05.279Z,10192.00
2019-04-23T12:02:58.037Z,11692.00
2019-04-23T12:04:24.126Z,12796.00
2019-04-23T12:05:21.333Z,18400.00
2019-04-23T12:06:12.115Z,23392.00
2019-04-23T12:07:14.007Z,25696.00
2019-04-23T12:08:16.952Z,29440.00
2019-04-23T12:09:09.332Z,31360.00
2019-04-23T12:10:19.740Z,32992.00
2019-04-23T12:11:35.162Z,28032.00
2019-04-23T12:12:08.235Z,28448.00
2019-04-23T12:13:12.226Z,23104.00
2019-04-23T12:14:24.234Z,33984.00
2019-04-23T12:15:15.368Z,34272.00
2019-04-23T12:16:10.473Z,43616.00
2019-04-23T12:17:15.850Z,44480.00
2019-04-23T12:18:10.663Z,41184.00
2019-04-23T12:19:34.511Z,41152.00
2019-04-23T12:21:04.205Z,40256.00
2019-04-23T12:24:17.152Z,38368.00
2019-04-23T12:26:11.648Z,20192.00
2019-04-23T12:28:08.585Z,11940.00
2019-04-23T12:29:13.943Z,12896.00
2019-04-23T12:30:25.291Z,11268.00
2019-04-23T12:31:10.028Z,12820.00
2019-04-23T12:32:24.840Z,11504.00
2019-04-23T12:33:31.750Z,19968.00
2019-04-23T12:34:09.510Z,39744.00
2019-04-23T12:36:05.013Z,38080.00
2019-04-23T12:37:03.703Z,43744.00
2019-04-23T12:38:10.316Z,38336.00
2019-04-23T12:39:15.478Z,26272.00
2019-04-23T12:40:15.335Z,39904.00
2019-04-23T12:41:10.524Z,25952.00
2019-04-23T12:42:25.139Z,28448.00
2019-04-23T12:43:12.110Z,33120.00
2019-04-23T12:44:11.046Z,19872.00
2019-04-23T12:45:14.285Z,28320.00
2019-04-23T12:46:08.861Z,35776.00
2019-04-23T12:47:19.270Z,35232.00
2019-04-23T12:49:25.005Z,40032.00
2019-04-23T12:50:58.639Z,40608.00
2019-04-23T12:52:12.019Z,33824.00
2019-04-23T12:53:10.522Z,32128.00
2019-04-23T12:54:16.222Z,35808.00
2019-04-23T12:55:15.019Z,32864.00
2019-04-23T12:56:10.809Z,31744.00
2019-04-23T12:57:14.264Z,37024.00
2019-04-23T12:59:07.567Z,40544.00
2019-04-23T13:00:05.265Z,43104.00
2019-04-23T13:01:10.824Z,46720.00
2019-04-23T13:03:04.968Z,37472.00
2019-04-23T13:04:09.393Z,22976.00
2019-04-23T13:05:28.775Z,40800.00
2019-04-23T13:06:01.086Z,57056.00
2019-04-23T13:07:09.117Z,61216.00
2019-04-23T13:08:08.636Z,59488.00
2019-04-23T13:09:19.448Z,39840.00
2019-04-23T13:10:22.588Z,12068.00
2019-04-23T13:11:10.291Z,9856.00
2019-04-23T13:12:10.560Z,11648.00
2019-04-23T13:14:08.874Z,17952.00
2019-04-23T13:15:10.855Z,17332.00
2019-04-23T13:16:12.233Z,11776.00
2019-04-23T13:17:12.606Z,9000.00
2019-04-23T13:18:06.772Z,11440.00
2019-04-23T13:19:14.726Z,16756.00
2019-04-23T13:20:15.194Z,9756.00
2019-04-23T13:21:14.278Z,9380.00
2019-04-23T13:22:08.244Z,10380.00
2019-04-23T13:24:05.104Z,8512.00
2019-04-23T13:25:10.161Z,8288.00
2019-04-23T13:27:10.769Z,7300.00
2019-04-23T13:28:06.586Z,6992.00
2019-04-23T13:29:16.105Z,6388.00
2019-04-23T13:30:08.619Z,5796.00
2019-04-23T13:31:06.474Z,5740.00
2019-04-23T13:32:05.444Z,5836.00
2019-04-23T13:33:18.071Z,6148.00
2019-04-23T13:34:10.349Z,6744.00
2019-04-23T13:35:20.125Z,7072.00
2019-04-23T13:36:14.510Z,7380.00
2019-04-23T13:37:11.290Z,7204.00
2019-04-23T13:38:12.472Z,7468.00
2019-04-23T13:39:07.191Z,7572.00
2019-04-23T13:40:09.510Z,7652.00
2019-04-23T13:41:13.377Z,7820.00
2019-04-23T13:43:14.694Z,8092.00
2019-04-23T13:44:04.557Z,8256.00
2019-04-23T13:46:15.788Z,8596.00
2019-04-23T13:47:10.646Z,8504.00
2019-04-23T13:48:06.321Z,8616.00
2019-04-23T13:49:03.143Z,8896.00
2019-04-23T13:50:17.890Z,8660.00
2019-04-23T13:51:06.701Z,8944.00
2019-04-23T13:52:26.395Z,9440.00
2019-04-23T13:54:39.375Z,11056.00
2019-04-23T13:56:15.335Z,23424.00
2019-04-23T13:57:37.267Z,13444.00
2019-04-23T13:58:20.742Z,24928.00
2019-04-23T14:00:07.066Z,22848.00
2019-04-23T14:01:19.434Z,22656.00
2019-04-23T14:02:17.617Z,18240.00
2019-04-23T14:03:02.896Z,15408.00
2019-04-23T14:04:15.252Z,13092.00
2019-04-23T14:05:04.895Z,10316.00
2019-04-23T14:06:16.483Z,8592.00
2019-04-23T14:07:07.836Z,7184.00
2019-04-23T14:08:13.098Z,6396.00
2019-04-23T14:10:13.558Z,7920.00
2019-04-23T14:11:20.978Z,8528.00
2019-04-23T14:12:09.065Z,8092.00
2019-04-23T14:14:08.173Z,9628.00
2019-04-23T14:16:13.769Z,12532.00
2019-04-23T14:17:18.021Z,12536.00
2019-04-23T14:18:55.902Z,10112.00
2019-04-23T14:20:12.045Z,11156.00
2019-04-23T14:21:14.087Z,15592.00
2019-04-23T14:22:20.996Z,16416.00
2019-04-23T14:23:14.319Z,17632.00
2019-04-23T14:24:17.722Z,18688.00
2019-04-23T14:25:06.042Z,18656.00
2019-04-23T14:26:21.524Z,19040.00
2019-04-23T14:27:10.892Z,17632.00
2019-04-23T14:29:19.097Z,17280.00
2019-04-23T14:30:13.231Z,18624.00
2019-04-23T14:31:04.839Z,20512.00
2019-04-23T14:32:08.797Z,22016.00
2019-04-23T14:33:12.064Z,18752.00
2019-04-23T14:34:04.747Z,16992.00
2019-04-23T14:35:18.457Z,14940.00
2019-04-23T14:36:07.535Z,11936.00